Time;durP1;ratioP1;P1;durP2;ratioP2;P2;SDS_P1;SDS_P2;PMS_P1;PMS_P2;Temp;Humidity;BMP_temperature;BMP_pressure;BME280_temperature;BME280_humidity;BME280_pressure;Samples;Min_cycle;Max_cycle;Signal;HPM_P1;HPM_P2
2021/04/07 00:00:26;;;;;;;21.15;12.63;;;;;;;-1.95;78.08;96987.31;1788692;78;21233;-74
2021/04/07 00:02:54;;;;;;;20.10;10.72;;;;;;;-1.97;77.83;96984.05;1788742;80;21094;-74
2021/04/07 00:05:24;;;;;;;19.67;11.10;;;;;;;-2.00;79.36;96980.01;1788754;78;21085;-74
2021/04/07 00:07:51;;;;;;;23.42;11.22;;;;;;;-2.01;78.50;96983.70;1788443;80;21086;-74
2021/04/07 00:10:20;;;;;;;23.30;12.18;;;;;;;-2.00;77.92;96977.88;1788729;78;21247;-74
2021/04/07 00:12:46;;;;;;;20.20;11.00;;;;;;;-1.93;78.25;96979.12;1764272;80;25183;-74
2021/04/07 00:15:19;;;;;;;21.55;10.95;;;;;;;-1.89;77.43;96981.08;1788819;78;21059;-74
2021/04/07 00:17:46;;;;;;;22.50;11.40;;;;;;;-1.90;77.42;96980.79;1788736;80;21153;-74
2021/04/07 00:20:16;;;;;;;22.55;11.88;;;;;;;-1.91;77.78;96984.48;1788862;78;21019;-74
2021/04/07 00:22:42;;;;;;;13.95;8.95;;;;;;;-1.89;77.80;96981.59;1788726;80;21251;-74
2021/04/07 00:25:09;;;;;;;26.07;13.13;;;;;;;-1.88;78.02;96977.41;1788819;78;21170;-74
2021/04/07 00:27:37;;;;;;;20.05;12.00;;;;;;;-1.94;77.89;96982.29;1788819;80;21079;-74
2021/04/07 00:30:05;;;;;;;23.77;13.93;;;;;;;-1.92;77.60;96982.06;1789105;78;21499;-74
2021/04/07 00:32:31;;;;;;;21.80;10.10;;;;;;;-1.96;77.84;96976.92;1789011;80;21066;-74
2021/04/07 00:34:58;;;;;;;15.20;7.58;;;;;;;-1.89;77.83;96981.08;1788837;78;21261;-74
2021/04/07 00:37:24;;;;;;;13.38;6.58;;;;;;;-1.87;77.68;96983.02;1785900;80;21428;-74
2021/04/07 00:39:51;;;;;;;24.90;11.33;;;;;;;-1.87;77.60;96981.69;1785153;79;21125;-74
2021/04/07 00:42:17;;;;;;;22.42;12.73;;;;;;;-1.89;77.74;96979.75;1785115;80;21476;-74
2021/04/07 00:44:43;;;;;;;32.15;16.37;;;;;;;-1.97;77.80;96976.08;1785252;80;21134;-74
2021/04/07 00:47:16;;;;;;;35.70;16.73;;;;;;;-2.04;77.82;96972.73;1784845;80;21243;-74
2021/04/07 00:49:42;;;;;;;29.67;14.98;;;;;;;-2.12;77.89;96971.20;1785103;80;21074;-73
2021/04/07 00:52:09;;;;;;;17.02;9.83;;;;;;;-2.22;77.91;96970.93;1785061;79;21150;-73
2021/04/07 00:54:35;;;;;;;26.85;12.10;;;;;;;-2.34;78.13;96974.02;1785212;80;21526;-74
2021/04/07 00:57:01;;;;;;;28.20;16.15;;;;;;;-2.46;78.00;96980.61;1785063;79;21091;-73
2021/04/07 00:59:27;;;;;;;13.70;6.80;;;;;;;-2.49;78.27;96986.33;1785189;80;21203;-74
2021/04/07 01:01:55;;;;;;;24.55;13.78;;;;;;;-2.46;78.29;96985.91;1785009;79;21043;-73
2021/04/07 01:04:21;;;;;;;12.47;7.47;;;;;;;-2.51;78.58;96993.71;1785138;80;21082;-73
2021/04/07 01:06:48;;;;;;;23.42;12.25;;;;;;;-2.52;78.72;96990.77;1785085;79;21039;-73
2021/04/07 01:09:14;;;;;;;20.32;10.58;;;;;;;-2.54;78.22;96990.19;1756833;80;21484;-73
2021/04/07 01:11:40;;;;;;;20.32;10.03;;;;;;;-2.53;80.50;96990.47;1785065;79;21266;-73
2021/04/07 01:14:06;;;;;;;16.95;10.43;;;;;;;-2.48;79.45;96997.23;1785049;80;21138;-73
2021/04/07 01:16:33;;;;;;;17.52;10.68;;;;;;;-2.49;79.49;96995.62;1785010;79;21098;-73
2021/04/07 01:18:59;;;;;;;18.82;9.20;;;;;;;-2.54;80.64;97001.31;1785122;80;21181;-74
2021/04/07 01:21:25;;;;;;;21.95;10.55;;;;;;;-2.50;78.76;97005.94;1785067;79;21020;-73
2021/04/07 01:23:51;;;;;;;21.17;11.53;;;;;;;-2.53;78.48;97005.06;1785306;80;21186;-73
2021/04/07 01:26:17;;;;;;;27.75;12.30;;;;;;;-2.54;79.34;97003.97;1785217;79;21401;-73
2021/04/07 01:28:43;;;;;;;18.10;10.03;;;;;;;-2.45;78.73;97010.08;1785284;80;21162;-73
2021/04/07 01:31:10;;;;;;;22.87;11.55;;;;;;;-2.47;78.09;97016.13;1785320;79;21130;-73
2021/04/07 01:33:36;;;;;;;55.00;19.55;;;;;;;-2.50;78.00;97018.39;1785293;80;21149;-73
2021/04/07 01:36:03;;;;;;;26.48;12.30;;;;;;;-2.50;78.08;97014.41;1785114;78;21523;-73
2021/04/07 01:38:29;;;;;;;20.00;11.30;;;;;;;-2.51;78.05;97015.45;1785233;80;21098;-73
2021/04/07 01:40:55;;;;;;;22.73;11.95;;;;;;;-2.56;78.04;97012.15;1785188;79;21035;-73
2021/04/07 01:43:24;;;;;;;22.27;13.00;;;;;;;-2.57;78.05;97017.12;1785269;80;21126;-73
2021/04/07 01:45:50;;;;;;;18.32;10.60;;;;;;;-2.68;78.45;97020.00;1785402;79;21503;-74
2021/04/07 01:48:17;;;;;;;26.17;13.40;;;;;;;-2.71;78.15;97015.16;1785221;80;21240;-74
2021/04/07 01:50:48;;;;;;;24.37;12.40;;;;;;;-2.82;79.05;97017.18;1785167;79;21022;-74
2021/04/07 01:53:16;;;;;;;16.37;10.48;;;;;;;-2.77;79.35;97022.65;1785323;80;21428;-74
2021/04/07 01:55:42;;;;;;;20.35;11.53;;;;;;;-2.76;78.19;97026.92;1782707;79;21114;-74
2021/04/07 01:58:09;;;;;;;22.00;11.63;;;;;;;-2.85;79.26;97026.91;1785283;80;21477;-74
2021/04/07 02:00:35;;;;;;;17.23;11.25;;;;;;;-2.87;79.21;97027.65;1785287;79;22245;-74
2021/04/07 02:03:04;;;;;;;22.82;11.70;;;;;;;-2.92;79.02;97028.80;1785187;80;21121;-74
2021/04/07 02:05:31;;;;;;;19.92;10.13;;;;;;;-2.92;79.84;97030.94;1785154;79;21149;-74
2021/04/07 02:07:58;;;;;;;20.05;11.35;;;;;;;-2.97;79.58;97035.30;1785202;80;21420;-74
2021/04/07 02:10:24;;;;;;;20.20;11.08;;;;;;;-2.99;79.88;97036.00;1785215;79;21023;-74
2021/04/07 02:12:57;;;;;;;21.00;11.50;;;;;;;-2.96;80.01;97036.91;1785321;80;21114;-74
2021/04/07 02:15:24;;;;;;;19.73;11.20;;;;;;;-2.91;79.95;97043.16;1785132;79;21475;-73
2021/04/07 02:17:50;;;;;;;21.20;11.68;;;;;;;-2.87;79.46;97039.58;1785219;80;21523;-73
2021/04/07 02:20:17;;;;;;;22.25;11.38;;;;;;;-2.94;79.99;97042.80;1785187;79;21015;-73
2021/04/07 02:22:44;;;;;;;20.35;12.37;;;;;;;-2.90;80.95;97044.00;1785229;80;21071;-73
2021/04/07 02:25:11;;;;;;;23.02;11.65;;;;;;;-2.79;79.96;97035.84;1785220;79;21178;-73
2021/04/07 02:27:38;;;;;;;18.48;9.93;;;;;;;-2.75;80.60;97040.47;1785126;80;21067;-73
2021/04/07 02:30:08;;;;;;;19.90;11.88;;;;;;;-2.78;79.70;97042.77;1785208;79;21102;-73
2021/04/07 02:32:34;;;;;;;21.00;12.05;;;;;;;-2.81;79.71;97044.53;1785165;80;21139;-73
2021/04/07 02:35:00;;;;;;;27.52;13.10;;;;;;;-2.81;80.12;97047.19;1785331;79;21527;-73
2021/04/07 02:37:26;;;;;;;20.50;10.03;;;;;;;-2.78;79.92;97036.94;1785158;80;22069;-73
2021/04/07 02:39:52;;;;;;;21.70;11.08;;;;;;;-2.66;78.95;97046.30;1785160;79;21122;-73
2021/04/07 02:42:21;;;;;;;21.05;11.12;;;;;;;-2.60;78.52;97046.77;1785177;80;21075;-73
2021/04/07 02:44:47;;;;;;;20.82;12.40;;;;;;;-2.56;78.98;97047.45;1785377;79;21087;-73
2021/04/07 02:47:13;;;;;;;18.80;10.93;;;;;;;-2.50;79.07;97049.71;1785308;80;21075;-74
2021/04/07 02:49:39;;;;;;;25.75;12.78;;;;;;;-2.56;78.85;97049.28;1785244;80;21181;-73
2021/04/07 02:52:06;;;;;;;22.22;12.80;;;;;;;-2.67;78.48;97046.82;1785185;79;21031;-73
2021/04/07 02:54:32;;;;;;;27.07;13.83;;;;;;;-2.74;78.42;97052.70;1785201;80;21134;-73
2021/04/07 02:57:00;;;;;;;27.80;13.83;;;;;;;-2.82;78.22;97053.49;1785101;79;21126;-73
2021/04/07 02:59:26;;;;;;;27.75;14.18;;;;;;;-2.86;78.28;97060.56;1785294;80;21058;-73
2021/04/07 03:01:52;;;;;;;25.48;13.50;;;;;;;-2.87;78.46;97055.48;1785230;79;21197;-73
2021/04/07 03:04:18;;;;;;;23.55;13.43;;;;;;;-2.91;78.17;97058.27;1785220;80;21122;-73
2021/04/07 03:06:44;;;;;;;27.07;13.85;;;;;;;-2.98;78.28;97063.64;1785214;79;21047;-73
2021/04/07 03:09:11;;;;;;;32.35;18.92;;;;;;;-3.02;79.04;97062.44;1785215;80;21146;-73
2021/04/07 03:11:37;;;;;;;37.42;17.00;;;;;;;-3.06;78.80;97062.59;1785126;79;21034;-73
2021/04/07 03:14:04;;;;;;;35.52;16.85;;;;;;;-3.07;78.48;97058.84;1785210;80;21198;-74
2021/04/07 03:16:30;;;;;;;44.13;20.72;;;;;;;-3.17;79.53;97058.77;1785094;79;21086;-73
2021/04/07 03:18:56;;;;;;;43.10;21.10;;;;;;;-3.11;78.63;97070.36;1785191;80;21173;-73
2021/04/07 03:21:22;;;;;;;30.37;15.88;;;;;;;-2.99;78.07;97071.79;1785142;79;21103;-73
2021/04/07 03:23:48;;;;;;;65.05;27.35;;;;;;;-2.92;77.88;97064.59;1785284;80;21031;-73
2021/04/07 03:26:14;;;;;;;183.68;69.20;;;;;;;-2.88;78.55;97077.73;1785171;79;21043;-73
2021/04/07 03:28:41;;;;;;;323.23;125.60;;;;;;;-2.87;78.97;97084.14;1785193;80;21483;-73
2021/04/07 03:31:07;;;;;;;169.77;74.35;;;;;;;-2.88;78.99;97077.73;1785154;79;21082;-73
2021/04/07 03:33:35;;;;;;;100.58;45.23;;;;;;;-2.92;78.68;97076.01;1785134;80;21099;-73
2021/04/07 03:36:03;;;;;;;102.75;47.08;;;;;;;-3.00;78.58;97078.93;1785165;79;21073;-74
2021/04/07 03:38:29;;;;;;;75.35;36.33;;;;;;;-3.01;78.20;97083.13;1749884;80;21261;-74
2021/04/07 03:40:56;;;;;;;59.05;29.00;;;;;;;-3.05;78.01;97076.65;1738728;82;21419;-73
2021/04/07 03:43:23;;;;;;;44.35;23.40;;;;;;;-2.98;78.50;97082.72;1738664;82;21089;-74
2021/04/07 03:45:52;;;;;;;48.52;24.67;;;;;;;-2.92;78.65;97082.64;1738685;82;21120;-74
2021/04/07 03:48:21;;;;;;;;;;;;;;;-2.95;78.50;97088.90;1741360;82;21426;-73
2021/04/07 03:50:48;;;;;;;44.83;20.82;;;;;;;-3.08;78.53;97091.64;1738837;82;21001;-73
2021/04/07 03:53:15;;;;;;;53.13;27.20;;;;;;;-3.28;79.14;97089.95;1738600;82;21037;-73
2021/04/07 03:55:41;;;;;;;76.07;39.50;;;;;;;-3.25;79.15;97096.66;1738639;82;21124;-73
2021/04/07 03:58:08;;;;;;;49.05;25.68;;;;;;;-3.25;79.48;97097.98;1738763;82;21073;-73
2021/04/07 04:00:34;;;;;;;64.50;31.02;;;;;;;-3.22;79.22;97105.00;1738696;82;21022;-73
2021/04/07 04:03:00;;;;;;;58.92;28.10;;;;;;;-3.15;78.35;97112.91;1738701;82;21199;-73
2021/04/07 04:05:26;;;;;;;49.75;26.45;;;;;;;-3.14;79.55;97112.69;1738611;82;21081;-73
2021/04/07 04:07:53;;;;;;;42.67;22.25;;;;;;;-3.10;79.71;97114.39;1738686;82;21104;-73
2021/04/07 04:10:19;;;;;;;41.85;21.48;;;;;;;-3.02;79.90;97110.66;1738764;82;21172;-73
2021/04/07 04:12:45;;;;;;;36.90;19.52;;;;;;;-2.98;78.45;97111.36;1738782;82;21040;-73
2021/04/07 04:15:13;;;;;;;42.17;22.90;;;;;;;-2.99;78.64;97107.58;1738741;82;22126;-73
2021/04/07 04:17:40;;;;;;;39.83;20.52;;;;;;;-2.92;79.55;97112.31;1738555;82;21145;-73
2021/04/07 04:20:07;;;;;;;27.07;14.98;;;;;;;-2.86;80.39;97108.81;1738750;82;21178;-73
2021/04/07 04:22:33;;;;;;;28.55;15.53;;;;;;;-2.79;78.58;97118.85;1738750;82;21498;-73
2021/04/07 04:24:59;;;;;;;34.58;17.48;;;;;;;-2.73;78.35;97117.19;1738823;82;21552;-73
2021/04/07 04:27:26;;;;;;;39.50;18.98;;;;;;;-2.75;80.33;97112.07;1738643;82;21102;-73
2021/04/07 04:29:52;;;;;;;66.47;27.87;;;;;;;-2.73;79.77;97122.48;1738716;82;21252;-73
2021/04/07 04:32:18;;;;;;;73.47;29.32;;;;;;;-2.72;80.02;97117.48;1738732;82;21258;-73
2021/04/07 04:34:44;;;;;;;57.08;28.47;;;;;;;-2.68;78.61;97125.28;1738783;82;21564;-73
2021/04/07 04:37:10;;;;;;;54.55;23.10;;;;;;;-2.78;79.10;97129.75;1741473;80;21148;-73
2021/04/07 04:39:37;;;;;;;44.18;21.55;;;;;;;-2.73;79.35;97125.95;1778056;80;22069;-73
2021/04/07 04:42:03;;;;;;;32.33;13.90;;;;;;;-2.68;78.77;97142.01;1777894;79;21503;-73
2021/04/07 04:44:29;;;;;;;39.25;18.77;;;;;;;-2.54;78.47;97140.06;1777953;80;21138;-73
2021/04/07 04:46:55;;;;;;;50.60;20.45;;;;;;;-2.44;77.92;97140.89;1778007;79;21020;-73
2021/04/07 04:49:22;;;;;;;42.38;21.70;;;;;;;-2.37;77.88;97140.32;1778005;80;21079;-73
2021/04/07 04:51:48;;;;;;;45.23;21.70;;;;;;;-2.23;78.70;97138.33;1777927;79;21190;-73
2021/04/07 04:54:17;;;;;;;46.90;26.17;;;;;;;-2.04;78.02;97143.97;1777942;80;21047;-73
2021/04/07 04:56:43;;;;;;;43.00;25.82;;;;;;;-1.94;77.22;97145.59;1778021;79;21075;-73
2021/04/07 04:59:09;;;;;;;40.58;22.90;;;;;;;-1.91;77.45;97149.13;1778092;80;21118;-73
2021/04/07 05:01:35;;;;;;;96.65;43.30;;;;;;;-1.80;78.05;97147.56;1778118;79;21129;-73
2021/04/07 05:04:05;;;;;;;51.08;26.20;;;;;;;-1.69;77.06;97151.34;1778122;80;22094;-73
2021/04/07 05:06:31;;;;;;;43.42;22.27;;;;;;;-1.74;76.84;97150.67;1778050;79;21118;-73
2021/04/07 05:08:57;;;;;;;43.55;21.68;;;;;;;-1.72;76.84;97151.25;1729467;80;21420;-73
2021/04/07 05:11:23;;;;;;;39.18;21.70;;;;;;;-1.76;76.84;97150.90;1778077;79;21479;-73
2021/04/07 05:13:50;;;;;;;51.02;27.73;;;;;;;-1.73;77.05;97154.95;1778115;80;21494;-73
2021/04/07 05:16:16;;;;;;;31.62;21.10;;;;;;;-1.68;77.15;97157.76;1778045;79;21313;-73
2021/04/07 05:18:42;;;;;;;45.38;22.62;;;;;;;-1.63;76.91;97152.57;1778140;80;21467;-73
2021/04/07 05:21:08;;;;;;;44.20;23.00;;;;;;;-1.52;76.77;97160.33;1778091;79;21071;-73
2021/04/07 05:23:34;;;;;;;42.88;21.90;;;;;;;-1.50;76.75;97159.06;1778130;80;21550;-74
2021/04/07 05:26:00;;;;;;;40.55;22.20;;;;;;;-1.46;76.63;97160.23;1778100;79;21063;-73
2021/04/07 05:28:26;;;;;;;34.60;16.60;;;;;;;-1.43;76.67;97161.64;1778136;80;21191;-73
2021/04/07 05:30:58;;;;;;;48.48;22.10;;;;;;;-1.37;76.54;97163.91;1778004;79;21054;-73
2021/04/07 05:33:26;;;;;;;35.88;20.57;;;;;;;-1.35;76.49;97166.66;1778166;80;21039;-73
2021/04/07 05:35:56;;;;;;;49.40;24.55;;;;;;;-1.34;76.56;97164.80;1778066;79;21087;-73
2021/04/07 05:38:23;;;;;;;44.20;22.00;;;;;;;-1.32;76.40;97173.36;1778054;78;21099;-74
2021/04/07 05:40:51;;;;;;;35.38;15.48;;;;;;;-1.26;76.67;97175.13;1778061;79;21249;-74
2021/04/07 05:43:18;;;;;;;31.20;18.85;;;;;;;-1.16;76.34;97178.86;1778121;80;21036;-73
2021/04/07 05:45:44;;;;;;;39.53;20.60;;;;;;;-1.20;76.13;97183.02;1778060;80;21031;-74
2021/04/07 05:48:11;;;;;;;35.98;21.75;;;;;;;-1.15;76.17;97181.00;1778194;80;21522;-74
2021/04/07 05:50:43;;;;;;;32.83;20.57;;;;;;;-1.14;76.50;97180.77;1778124;79;21420;-74
2021/04/07 05:53:09;;;;;;;39.20;22.25;;;;;;;-1.03;76.06;97185.83;1778017;80;21470;-74
2021/04/07 05:55:35;;;;;;;31.25;18.62;;;;;;;-1.01;76.30;97190.43;1778071;79;21067;-74
2021/04/07 05:58:07;;;;;;;34.63;16.40;;;;;;;-0.91;76.29;97196.53;1778024;80;21500;-74
2021/04/07 06:00:34;;;;;;;39.95;20.17;;;;;;;-0.88;75.89;97194.22;1778033;79;21091;-74
2021/04/07 06:03:02;;;;;;;39.78;24.45;;;;;;;-0.87;76.37;97200.34;1778161;80;21091;-74
2021/04/07 06:05:28;;;;;;;35.20;18.87;;;;;;;-0.83;76.08;97203.37;1778371;79;22104;-74
2021/04/07 06:07:55;;;;;;;92.92;35.10;;;;;;;-0.83;76.34;97203.37;1777957;80;21047;-74
2021/04/07 06:10:22;;;;;;;44.67;23.22;;;;;;;-0.76;76.27;97203.58;1778024;79;21118;-74
2021/04/07 06:12:48;;;;;;;40.23;21.00;;;;;;;-0.81;76.40;97205.29;1778101;80;21095;-74
2021/04/07 06:15:15;;;;;;;32.33;18.90;;;;;;;-0.77;76.61;97199.30;1778070;79;21025;-74
2021/04/07 06:17:43;;;;;;;41.20;24.20;;;;;;;-0.79;76.37;97201.35;1778004;80;21100;-74
2021/04/07 06:20:10;;;;;;;44.53;27.77;;;;;;;-0.76;76.42;97209.42;1777974;79;21610;-74
2021/04/07 06:22:37;;;;;;;36.60;23.57;;;;;;;-0.72;76.47;97212.72;1778074;80;21142;-74
2021/04/07 06:25:06;;;;;;;49.30;29.95;;;;;;;-0.78;76.45;97216.80;1778047;79;21083;-74
2021/04/07 06:27:32;;;;;;;46.98;28.02;;;;;;;-0.71;76.51;97218.84;1777898;80;21082;-74
2021/04/07 06:30:01;;;;;;;61.02;36.83;;;;;;;-0.66;76.48;97213.66;1777991;79;21187;-74
2021/04/07 06:32:28;;;;;;;48.58;27.80;;;;;;;-0.68;76.40;97217.08;1778061;80;21063;-74
2021/04/07 06:34:54;;;;;;;42.85;22.80;;;;;;;-0.62;76.47;97221.47;1777993;79;21431;-74
2021/04/07 06:37:21;;;;;;;45.80;24.92;;;;;;;-0.52;76.45;97219.58;1777991;80;21130;-73
2021/04/07 06:39:47;;;;;;;43.28;25.97;;;;;;;-0.43;75.99;97224.86;1784415;79;21035;-73
2021/04/07 06:42:17;;;;;;;63.75;42.75;;;;;;;-0.40;76.00;97223.09;1785303;80;22015;-73
2021/04/07 06:44:43;;;;;;;43.02;25.12;;;;;;;-0.27;76.06;97216.73;1785130;80;21123;-74
2021/04/07 06:47:13;;;;;;;43.13;23.10;;;;;;;-0.25;75.88;97214.16;1782480;78;21173;-74
2021/04/07 06:49:42;;;;;;;54.70;27.80;;;;;;;-0.20;75.80;97219.58;1785058;80;21158;-74
2021/04/07 06:52:22;;;;;;;38.40;24.40;;;;;;;-0.09;76.06;97228.09;1785237;79;21531;-74
2021/04/07 06:54:53;;;;;;;55.05;25.88;;;;;;;-0.02;75.72;97226.66;1785165;79;21356;-73
2021/04/07 06:57:19;;;;;;;70.22;31.80;;;;;;;0.03;75.57;97228.64;1785119;80;21126;-73
2021/04/07 06:59:46;;;;;;;40.43;21.73;;;;;;;0.10;75.51;97234.14;1785235;79;21051;-73
2021/04/07 07:02:12;;;;;;;48.10;27.90;;;;;;;0.15;75.56;97239.57;1785172;80;21110;-73
2021/04/07 07:04:41;;;;;;;32.35;18.15;;;;;;;0.20;75.30;97239.70;1785191;80;21431;-73
2021/04/07 07:07:07;;;;;;;29.98;15.75;;;;;;;0.23;75.16;97243.22;1785282;79;21125;-74
2021/04/07 07:09:33;;;;;;;28.30;17.65;;;;;;;0.30;75.24;97244.44;1784949;80;21482;-74
2021/04/07 07:12:00;;;;;;;23.67;13.50;;;;;;;0.26;75.19;97247.30;1785176;79;21158;-74
2021/04/07 07:14:26;;;;;;;25.40;14.07;;;;;;;0.29;74.99;97246.81;1785158;80;21035;-74
2021/04/07 07:16:53;;;;;;;19.12;12.45;;;;;;;0.35;74.88;97248.56;1756741;80;21071;-74
2021/04/07 07:19:24;;;;;;;23.95;15.55;;;;;;;0.46;74.98;97245.59;1785092;80;21254;-74
2021/04/07 07:21:52;;;;;;;21.05;14.07;;;;;;;0.53;75.01;97255.08;1782389;79;21082;-74
2021/04/07 07:24:35;;;;;;;19.87;12.03;;;;;;;0.65;75.08;97254.25;1785493;80;21083;-74
2021/04/07 07:27:07;;;;;;;18.27;11.97;;;;;;;0.73;75.07;97247.22;1785162;79;21062;-73
2021/04/07 07:29:37;;;;;;;23.35;12.68;;;;;;;0.86;74.58;97256.83;1785159;80;21087;-73
2021/04/07 07:32:10;;;;;;;22.80;12.43;;;;;;;1.02;74.66;97260.87;1785236;79;21195;-74
2021/04/07 07:34:36;;;;;;;21.25;12.05;;;;;;;1.18;73.86;97259.84;1785212;80;21090;-72
2021/04/07 07:37:05;;;;;;;29.48;16.97;;;;;;;1.09;74.06;97260.21;1785110;79;21083;-72
2021/04/07 07:39:36;;;;;;;28.83;18.37;;;;;;;0.95;74.56;97258.88;1780669;80;26601;-73
2021/04/07 07:42:07;;;;;;;23.25;13.08;;;;;;;1.07;74.42;97258.31;1777973;79;21087;-74
2021/04/07 07:44:39;;;;;;;21.25;13.62;;;;;;;1.02;74.34;97264.87;1777909;80;21492;-74
2021/04/07 07:50:04;;;;;;;34.45;19.65;;;;;;;1.37;74.19;97275.44;1845535;76;22660;-72
2021/04/07 07:52:33;;;;;;;21.90;13.90;;;;;;;1.30;73.94;97276.63;1785457;80;21502;-73
2021/04/07 07:55:00;;;;;;;17.15;10.45;;;;;;;1.24;73.93;97279.72;1786052;79;21280;-73
2021/04/07 07:57:27;;;;;;;17.02;9.55;;;;;;;1.23;73.98;97294.12;1785812;80;20949;-73
2021/04/07 07:59:59;;;;;;;17.37;10.10;;;;;;;1.10;74.84;97290.38;1785941;79;21483;-73
2021/04/07 08:02:27;;;;;;;17.42;10.72;;;;;;;1.09;74.98;97295.42;1785903;80;21094;-73
2021/04/07 08:04:54;;;;;;;15.63;10.23;;;;;;;1.14;74.90;97299.55;1786099;79;20963;-73
2021/04/07 08:07:22;;;;;;;17.52;10.72;;;;;;;0.97;76.32;97304.80;1785956;80;21133;-74
2021/04/07 08:09:50;;;;;;;20.43;11.33;;;;;;;0.99;75.54;97305.38;1785890;79;20991;-74
2021/04/07 08:12:17;;;;;;;33.38;18.50;;;;;;;1.11;75.27;97301.33;1785997;80;21476;-73
2021/04/07 08:14:47;;;;;;;35.17;19.75;;;;;;;1.32;74.95;97303.37;1785954;79;21420;-74
2021/04/07 08:17:13;;;;;;;;;;;;;;;1.66;74.68;97306.94;1788561;80;21090;-74
2021/04/07 08:19:39;;;;;;;24.25;13.50;;;;;;;1.95;74.20;97300.20;1785935;80;21142;-74
2021/04/07 08:22:06;;;;;;;27.30;14.07;;;;;;;1.96;73.60;97301.83;1753781;80;21165;-73
2021/04/07 08:24:32;;;;;;;30.80;23.45;;;;;;;1.95;73.63;97296.20;1785891;80;21044;-73
2021/04/07 08:26:58;;;;;;;26.33;16.15;;;;;;;2.05;73.35;97300.90;1785850;79;21102;-73
2021/04/07 08:29:24;;;;;;;44.48;26.30;;;;;;;2.90;72.74;97301.89;1785800;80;21052;-73
2021/04/07 08:31:51;;;;;;;25.48;16.48;;;;;;;4.57;69.66;97296.58;1785865;79;21432;-74
2021/04/07 08:34:19;;;;;;;17.30;12.50;;;;;;;5.72;66.87;97293.03;1785808;79;21114;-74
2021/04/07 08:36:45;;;;;;;17.85;12.35;;;;;;;6.48;66.32;97287.73;1755320;80;21150;-74
2021/04/07 08:39:15;;;;;;;10.58;7.70;;;;;;;7.41;65.27;97295.29;1730564;80;21431;-72
2021/04/07 08:41:42;;;;;;;19.20;11.40;;;;;;;7.87;64.29;97302.61;1785898;79;21011;-73
2021/04/07 08:44:09;;;;;;;20.72;12.05;;;;;;;7.53;63.83;97301.18;1785822;80;21078;-73
2021/04/07 08:46:44;;;;;;;9.30;7.05;;;;;;;7.33;61.37;97302.05;1785842;79;21146;-73
2021/04/07 08:49:36;;;;;;;8.78;6.15;;;;;;;8.57;58.53;97298.33;1794386;79;21081;-74
2021/04/07 08:52:20;;;;;;;7.83;5.30;;;;;;;9.04;53.11;97283.25;1800464;78;21019;-73
2021/04/07 08:54:49;;;;;;;11.95;8.58;;;;;;;8.55;55.94;97295.66;1800424;78;21075;-73
2021/04/07 08:57:33;;;;;;;8.05;4.62;;;;;;;8.40;55.70;97294.69;1800517;79;22069;-73
2021/04/07 09:00:02;;;;;;;133.00;44.42;;;;;;;8.10;54.71;97292.19;1799987;78;21137;-73
2021/04/07 09:02:29;;;;;;;9.90;6.08;;;;;;;7.17;55.53;97295.11;1799909;79;21077;-73
2021/04/07 09:05:06;;;;;;;13.55;6.65;;;;;;;6.43;55.34;97294.48;1799739;78;21172;-74
2021/04/07 09:07:41;;;;;;;58.65;27.55;;;;;;;6.91;55.06;97294.38;1799928;79;21083;-73
2021/04/07 09:10:17;;;;;;;8.45;6.08;;;;;;;7.07;55.70;97302.69;1798796;78;21192;-72
2021/04/07 09:12:45;;;;;;;6.62;4.40;;;;;;;8.00;52.25;97293.07;1799883;79;21467;-73
2021/04/07 09:15:23;;;;;;;12.63;6.83;;;;;;;7.11;48.38;97300.81;1800026;78;21031;-72
2021/04/07 09:17:54;;;;;;;12.65;7.83;;;;;;;6.85;51.32;97300.88;1799891;79;21479;-73
2021/04/07 09:20:49;;;;;;;17.48;10.23;;;;;;;6.18;52.92;97303.36;1799915;78;21388;-74
2021/04/07 09:23:26;;;;;;;17.92;9.70;;;;;;;6.36;53.00;97303.36;1799728;79;21153;-73
2021/04/07 09:25:56;;;;;;;57.35;23.22;;;;;;;5.93;54.72;97309.52;1799756;78;21014;-72
2021/04/07 09:28:42;;;;;;;11.48;6.95;;;;;;;6.29;53.74;97302.81;1799771;79;21046;-73
2021/04/07 09:31:25;;;;;;;7.37;5.25;;;;;;;6.14;54.84;97303.07;1799775;78;21114;-73
2021/04/07 09:33:53;;;;;;;32.93;18.02;;;;;;;6.22;53.17;97300.39;1799799;79;21038;-73
2021/04/07 09:36:36;;;;;;;101.60;40.67;;;;;;;6.48;54.86;97300.65;1773450;79;21265;-73
2021/04/07 09:39:06;;;;;;;30.72;16.50;;;;;;;6.25;54.13;97301.22;1799801;79;21411;-73
2021/04/07 09:41:34;;;;;;;18.90;11.53;;;;;;;6.05;54.30;97292.58;1799831;78;21031;-74
2021/04/07 09:44:02;;;;;;;28.77;15.48;;;;;;;5.86;53.13;97290.92;1799898;79;21445;-74
2021/04/07 09:46:28;;;;;;;118.15;60.33;;;;;;;5.84;51.93;97297.11;1799860;78;21077;-74
2021/04/07 09:48:59;;;;;;;54.30;32.80;;;;;;;5.97;52.70;97301.71;1798770;78;21202;-74
2021/04/07 09:51:33;;;;;;;16.30;9.83;;;;;;;5.89;52.98;97301.67;1797238;78;21522;-73
2021/04/07 09:54:12;;;;;;;13.40;7.28;;;;;;;5.73;53.28;97293.33;1797314;79;21114;-74
2021/04/07 09:56:49;;;;;;;12.45;7.85;;;;;;;5.56;52.00;97287.65;1797448;78;21102;-73
2021/04/07 09:59:16;;;;;;;10.88;6.55;;;;;;;5.41;52.83;97276.84;1797191;79;21539;-73
2021/04/07 10:01:43;;;;;;;24.60;10.82;;;;;;;5.58;52.03;97278.78;1797361;78;21196;-73
2021/04/07 10:04:10;;;;;;;50.80;20.00;;;;;;;5.74;52.87;97274.25;1797114;79;21399;-73
2021/04/07 10:06:41;;;;;;;;;;;;;;;6.11;52.62;97284.79;1799871;78;21101;-73
2021/04/07 10:09:10;;;;;;;26.77;16.90;;;;;;;6.07;50.30;97284.27;1797413;79;20213;-73
2021/04/07 10:11:41;;;;;;;19.00;12.78;;;;;;;6.27;51.79;97292.88;1797264;78;21110;-73
2021/04/07 10:14:13;;;;;;;18.70;12.00;;;;;;;6.26;50.54;97288.57;1797197;79;21144;-73
2021/04/07 10:16:49;;;;;;;47.38;28.17;;;;;;;6.03;50.78;97296.63;1797169;78;21074;-74
2021/04/07 10:19:18;;;;;;;13.65;7.90;;;;;;;5.66;50.13;97310.52;1797266;79;21511;-73
2021/04/07 10:21:53;;;;;;;12.98;7.12;;;;;;;4.99;51.34;97323.94;1797196;78;21022;-73
2021/04/07 10:24:41;;;;;;;7.45;4.40;;;;;;;3.29;61.66;97358.08;1796825;79;21067;-74
2021/04/07 10:27:07;;;;;;;7.53;4.58;;;;;;;2.63;62.82;97366.00;1797191;78;21503;-74
2021/04/07 10:29:34;;;;;;;9.80;5.40;;;;;;;2.15;63.08;97365.23;1797153;79;21403;-74
2021/04/07 10:32:00;;;;;;;23.77;12.58;;;;;;;1.93;64.34;97388.63;1797267;78;21405;-74
2021/04/07 10:34:34;;;;;;;27.87;16.55;;;;;;;1.68;65.70;97388.16;1797256;79;21470;-74
2021/04/07 10:37:01;;;;;;;22.00;15.40;;;;;;;1.26;68.65;97394.25;1797171;78;21015;-74
2021/04/07 10:39:41;;;;;;;19.70;14.87;;;;;;;0.81;69.02;97397.03;1797222;79;21260;-74
2021/04/07 10:42:20;;;;;;;28.30;12.55;;;;;;;0.60;69.00;97386.95;1797144;78;20971;-74
2021/04/07 10:45:02;;;;;;;5.45;3.70;;;;;;;0.51;70.72;97380.31;1797325;78;21126;-74
2021/04/07 10:47:35;;;;;;;51.70;15.93;;;;;;;0.33;71.08;97371.89;1796336;79;21077;-75
2021/04/07 10:50:02;;;;;;;23.05;12.88;;;;;;;0.36;75.39;97362.64;1797175;78;21486;-74
2021/04/07 10:52:40;;;;;;;31.37;13.95;;;;;;;0.71;69.86;97358.66;1797277;79;22103;-75
2021/04/07 10:55:13;;;;;;;36.95;16.70;;;;;;;1.00;69.50;97356.87;1797320;78;21181;-76
2021/04/07 10:57:41;;;;;;;55.63;29.05;;;;;;;1.26;69.37;97353.69;1797281;79;21487;-76
2021/04/07 11:00:14;;;;;;;42.20;17.20;;;;;;;1.55;69.69;97346.53;1797267;78;21594;-75
2021/04/07 11:02:45;;;;;;;37.42;16.82;;;;;;;1.52;70.27;97346.17;1791638;79;21039;-75
2021/04/07 11:05:22;;;;;;;12.30;7.65;;;;;;;1.60;71.85;97341.27;1797043;78;21211;-75
2021/04/07 11:08:04;;;;;;;11.63;4.97;;;;;;;1.74;73.15;97348.48;1797232;79;20935;-75
2021/04/07 11:10:48;;;;;;;28.70;11.48;;;;;;;1.88;69.86;97343.63;1797216;78;21435;-74
2021/04/07 11:13:19;;;;;;;123.30;45.10;;;;;;;1.92;68.37;97334.91;1797243;79;21086;-74
2021/04/07 11:15:46;;;;;;;79.25;25.70;;;;;;;2.13;67.85;97327.22;1771410;79;21142;-74
2021/04/07 11:18:12;;;;;;;57.45;18.70;;;;;;;2.27;68.80;97325.86;1797144;79;21187;-74
2021/04/07 11:20:39;;;;;;;43.85;20.82;;;;;;;2.47;68.70;97321.34;1797078;78;21133;-74
2021/04/07 11:23:06;;;;;;;128.10;41.40;;;;;;;2.88;69.85;97325.42;1797158;79;21137;-74
2021/04/07 11:25:32;;;;;;;66.53;24.00;;;;;;;3.35;68.01;97318.27;1797237;78;21435;-74
2021/04/07 11:27:59;;;;;;;92.95;33.70;;;;;;;3.77;66.73;97314.97;1797220;79;21070;-73
2021/04/07 11:30:27;;;;;;;41.85;17.52;;;;;;;4.07;66.94;97301.02;1797054;78;21169;-74